createdAt,value
2022-12-19T00:01:32.207Z,12.60
2022-12-19T00:04:01.318Z,13.65
2022-12-19T00:06:30.169Z,12.48
2022-12-19T00:08:58.943Z,11.90
2022-12-19T00:11:26.820Z,12.97
2022-12-19T00:13:53.716Z,13.18
2022-12-19T00:16:23.050Z,14.02
2022-12-19T00:18:51.340Z,12.02
2022-12-19T00:21:24.370Z,13.52
2022-12-19T00:23:51.804Z,12.93
2022-12-19T00:26:19.418Z,12.25
2022-12-19T00:28:48.470Z,12.48
2022-12-19T00:31:16.318Z,12.38
2022-12-19T00:33:43.674Z,14.00
2022-12-19T00:36:22.470Z,13.73
2022-12-19T00:38:51.491Z,13.88
2022-12-19T00:41:33.135Z,13.73
2022-12-19T00:44:02.324Z,13.82
2022-12-19T00:46:30.820Z,12.93
2022-12-19T00:48:57.200Z,13.40
2022-12-19T00:51:26.573Z,11.93
2022-12-19T00:53:55.348Z,13.23
2022-12-19T00:56:24.742Z,11.90
2022-12-19T00:58:52.046Z,12.90
2022-12-19T01:01:30.700Z,11.73
2022-12-19T01:04:27.061Z,10.90
2022-12-19T01:06:44.928Z,11.07
2022-12-19T01:09:12.798Z,10.68
2022-12-19T01:11:58.193Z,11.90
2022-12-19T01:14:24.988Z,11.80
2022-12-19T01:16:52.182Z,10.13
2022-12-19T01:19:19.469Z,11.30
2022-12-19T01:21:45.978Z,10.30
2022-12-19T01:24:13.669Z,11.35
2022-12-19T01:26:42.217Z,12.30
2022-12-19T01:29:08.608Z,12.70
2022-12-19T01:31:35.106Z,12.63
2022-12-19T01:34:01.703Z,10.90
2022-12-19T01:36:28.903Z,11.40
2022-12-19T01:38:57.660Z,13.47
2022-12-19T01:41:24.703Z,11.40
2022-12-19T01:44:03.493Z,11.15
2022-12-19T01:46:40.842Z,12.18
2022-12-19T01:49:15.973Z,12.40
2022-12-19T01:51:47.067Z,11.90
2022-12-19T01:54:22.404Z,12.80
2022-12-19T01:56:53.163Z,12.50
2022-12-19T01:59:32.087Z,11.50
2022-12-19T02:02:11.836Z,12.90
2022-12-19T02:04:40.411Z,12.70
2022-12-19T02:07:15.601Z,12.32
2022-12-19T02:09:45.598Z,12.93
2022-12-19T02:12:12.624Z,13.50
2022-12-19T02:14:39.592Z,13.85
2022-12-19T02:17:23.272Z,13.73
2022-12-19T02:20:16.918Z,13.10
2022-12-19T02:23:08.272Z,13.25
2022-12-19T02:26:06.556Z,13.82
2022-12-19T02:28:42.614Z,13.30
2022-12-19T02:31:28.359Z,11.83
2022-12-19T02:34:23.647Z,12.55
2022-12-19T02:37:02.351Z,12.18
2022-12-19T02:39:36.492Z,12.63
2022-12-19T02:42:05.407Z,12.23
2022-12-19T02:44:36.588Z,11.10
2022-12-19T02:47:05.487Z,12.63
2022-12-19T02:49:36.827Z,12.27
2022-12-19T02:52:13.617Z,11.38
2022-12-19T02:54:42.309Z,12.50
2022-12-19T02:57:41.548Z,11.37
2022-12-19T03:00:14.499Z,10.60
2022-12-19T03:03:07.274Z,11.90
2022-12-19T03:05:55.695Z,11.60
2022-12-19T03:08:31.427Z,10.55
2022-12-19T03:11:09.488Z,11.77
2022-12-19T03:13:41.912Z,10.20
2022-12-19T03:16:10.911Z,11.23
2022-12-19T03:18:38.295Z,10.80
2022-12-19T03:21:27.301Z,10.68
2022-12-19T03:23:55.476Z,10.50
2022-12-19T03:26:25.084Z,11.90
2022-12-19T03:29:17.422Z,10.88
2022-12-19T03:31:46.038Z,10.95
2022-12-19T03:34:24.405Z,10.80
2022-12-19T03:36:56.440Z,11.27
2022-12-19T03:39:25.226Z,10.57
2022-12-19T03:42:12.139Z,10.57
2022-12-19T03:44:42.421Z,9.60
2022-12-19T03:47:19.016Z,11.63
2022-12-19T03:49:46.641Z,10.60
2022-12-19T03:52:34.211Z,10.60
2022-12-19T03:55:29.675Z,9.80
2022-12-19T03:58:04.727Z,9.57
2022-12-19T04:00:36.062Z,10.30
2022-12-19T04:03:04.727Z,10.07
2022-12-19T04:05:32.647Z,9.25
2022-12-19T04:08:04.393Z,7.97
2022-12-19T04:10:34.642Z,9.05
2022-12-19T04:13:08.626Z,7.80
2022-12-19T04:15:55.757Z,8.00
2022-12-19T04:18:23.256Z,8.85
2022-12-19T04:21:01.126Z,8.48
2022-12-19T04:23:33.351Z,7.70
2022-12-19T04:26:05.528Z,8.27
2022-12-19T04:28:40.717Z,8.17
2022-12-19T04:31:10.930Z,8.20
2022-12-19T04:33:37.367Z,8.00
2022-12-19T04:36:04.036Z,7.72
2022-12-19T04:38:30.659Z,7.97
2022-12-19T04:40:57.090Z,7.13
2022-12-19T04:43:23.459Z,7.57
2022-12-19T04:45:55.512Z,7.88
2022-12-19T04:48:23.638Z,7.63
2022-12-19T04:50:50.034Z,7.88
2022-12-19T04:53:16.431Z,7.67
2022-12-19T04:55:44.145Z,8.18
2022-12-19T04:58:11.331Z,8.02
2022-12-19T05:00:37.709Z,7.43
2022-12-19T05:03:04.360Z,9.25
2022-12-19T05:05:30.897Z,7.30
2022-12-19T05:08:00.378Z,8.00
2022-12-19T05:10:26.843Z,7.97
2022-12-19T05:12:54.399Z,7.47
2022-12-19T05:15:20.801Z,7.75
2022-12-19T05:17:47.225Z,7.63
2022-12-19T05:20:13.668Z,7.57
2022-12-19T05:22:40.079Z,6.72
2022-12-19T05:25:06.980Z,7.18
2022-12-19T05:27:33.349Z,6.82
2022-12-19T05:29:59.769Z,6.10
2022-12-19T05:32:26.201Z,6.55
2022-12-19T05:34:52.587Z,6.50
2022-12-19T05:37:18.978Z,6.28
2022-12-19T05:39:45.381Z,6.22
2022-12-19T05:42:12.644Z,5.33
2022-12-19T05:44:39.317Z,6.35
2022-12-19T05:47:05.946Z,7.03
2022-12-19T05:49:32.352Z,6.55
2022-12-19T05:51:58.809Z,5.82
2022-12-19T05:54:25.925Z,6.30
2022-12-19T05:56:52.383Z,6.20
2022-12-19T05:59:18.761Z,5.40
2022-12-19T06:01:45.267Z,5.90
2022-12-19T06:04:11.729Z,5.63
2022-12-19T06:06:38.141Z,5.70
2022-12-19T06:09:04.667Z,4.97
2022-12-19T06:11:31.098Z,5.97
2022-12-19T06:13:57.535Z,5.75
2022-12-19T06:16:24.299Z,5.53
2022-12-19T06:18:50.948Z,5.20
2022-12-19T06:21:19.753Z,5.55
2022-12-19T06:23:47.136Z,5.68
2022-12-19T06:26:19.526Z,5.10
2022-12-19T06:28:51.577Z,4.65
2022-12-19T06:31:19.494Z,4.73
2022-12-19T06:33:45.963Z,5.00
2022-12-19T06:36:28.584Z,5.35
2022-12-19T06:38:57.790Z,4.10
2022-12-19T06:41:43.318Z,4.60
2022-12-19T06:44:12.608Z,4.57
2022-12-19T06:46:39.927Z,4.80
2022-12-19T06:49:06.647Z,4.38
2022-12-19T06:51:33.531Z,4.57
2022-12-19T06:53:59.935Z,4.60
2022-12-19T06:56:26.881Z,4.33
2022-12-19T06:58:53.745Z,5.13
2022-12-19T07:01:29.457Z,5.03
2022-12-19T07:03:59.920Z,4.85
2022-12-19T07:06:26.537Z,5.00
2022-12-19T07:08:53.173Z,5.17
2022-12-19T07:11:19.646Z,5.15
2022-12-19T07:13:46.031Z,5.72
2022-12-19T07:16:12.528Z,5.55
2022-12-19T07:18:40.849Z,6.25
2022-12-19T07:21:11.246Z,5.40
2022-12-19T07:23:38.536Z,5.20
2022-12-19T07:26:05.087Z,4.85
2022-12-19T07:28:33.766Z,6.05
2022-12-19T07:31:00.183Z,5.85
2022-12-19T07:33:26.576Z,5.50
2022-12-19T07:35:52.970Z,5.82
2022-12-19T07:38:19.407Z,5.68
2022-12-19T07:40:45.921Z,5.55
2022-12-19T07:43:12.447Z,6.25
2022-12-19T07:45:39.427Z,6.20
2022-12-19T07:48:06.920Z,6.63
2022-12-19T07:50:33.563Z,6.13
2022-12-19T07:53:00.346Z,5.82
2022-12-19T07:55:27.243Z,5.95
2022-12-19T07:57:55.391Z,5.50
2022-12-19T08:00:22.711Z,5.22
2022-12-19T08:02:49.490Z,5.93
2022-12-19T08:05:16.188Z,5.65
2022-12-19T08:07:42.617Z,5.53
2022-12-19T08:10:11.427Z,5.53
2022-12-19T08:12:38.145Z,4.78
2022-12-19T08:15:05.787Z,6.45
2022-12-19T08:17:33.765Z,5.20
2022-12-19T08:20:00.192Z,5.07
2022-12-19T08:22:26.615Z,5.40
2022-12-19T08:24:53.060Z,5.30
2022-12-19T08:27:19.545Z,5.45
2022-12-19T08:29:45.963Z,5.80
2022-12-19T08:32:17.053Z,5.78
2022-12-19T08:34:46.887Z,6.07
2022-12-19T08:37:13.370Z,6.35
2022-12-19T08:39:39.732Z,5.80
2022-12-19T08:42:06.179Z,5.22
2022-12-19T08:44:32.682Z,5.60
2022-12-19T08:46:59.087Z,4.83
2022-12-19T08:49:25.518Z,5.20
2022-12-19T08:51:51.925Z,6.05
2022-12-19T08:54:18.343Z,5.40
2022-12-19T08:56:46.410Z,5.40
2022-12-19T08:59:15.459Z,5.60
2022-12-19T09:01:47.606Z,4.82
2022-12-19T09:05:13.806Z,5.75
2022-12-19T09:07:01.422Z,5.47
2022-12-19T09:09:27.887Z,4.95
2022-12-19T09:11:54.326Z,5.40
2022-12-19T09:14:21.268Z,5.22
2022-12-19T09:16:48.246Z,5.18
2022-12-19T09:19:16.346Z,4.50
2022-12-19T09:21:43.319Z,5.07
2022-12-19T09:24:10.691Z,5.10
2022-12-19T09:26:39.206Z,5.55
2022-12-19T09:29:20.083Z,4.75
2022-12-19T09:31:50.406Z,4.70
2022-12-19T09:34:22.691Z,4.80
2022-12-19T09:36:50.719Z,5.03
2022-12-19T09:39:18.181Z,4.40
2022-12-19T09:41:47.559Z,5.93
2022-12-19T09:44:15.467Z,4.22
2022-12-19T09:46:55.215Z,5.20
2022-12-19T09:49:25.627Z,4.87
2022-12-19T09:52:20.128Z,4.72
2022-12-19T09:54:57.578Z,4.88
2022-12-19T09:57:51.864Z,5.25
2022-12-19T10:00:21.621Z,5.18
2022-12-19T10:02:56.672Z,4.83
2022-12-19T10:07:07.739Z,5.15
2022-12-19T10:09:11.765Z,5.07
2022-12-19T10:12:38.708Z,4.50
2022-12-19T10:15:08.378Z,4.97
2022-12-19T10:17:54.648Z,4.30
2022-12-19T10:20:29.618Z,4.10
2022-12-19T10:23:29.577Z,4.15
2022-12-19T10:26:18.947Z,4.78
2022-12-19T10:29:00.978Z,5.35
2022-12-19T10:31:38.144Z,4.33
2022-12-19T10:34:22.699Z,4.65
2022-12-19T10:37:27.246Z,4.20
2022-12-19T10:40:21.760Z,4.90
2022-12-19T10:43:30.129Z,4.55
2022-12-19T10:46:04.023Z,4.17
2022-12-19T10:48:31.603Z,4.40
2022-12-19T10:50:58.512Z,4.28
2022-12-19T10:53:32.120Z,4.35
2022-12-19T10:56:11.811Z,4.60
2022-12-19T10:58:41.863Z,4.43
2022-12-19T11:01:22.073Z,4.50
2022-12-19T11:03:52.985Z,4.57
2022-12-19T11:06:34.865Z,4.40
2022-12-19T11:09:18.141Z,5.05
2022-12-19T11:14:42.557Z,5.20
2022-12-19T11:19:56.562Z,4.95
2022-12-19T11:27:32.153Z,5.20
2022-12-19T11:29:19.085Z,4.85
2022-12-19T11:29:19.747Z,4.57
2022-12-19T11:29:44.094Z,4.22
2022-12-19T11:30:05.574Z,4.60
2022-12-19T11:34:27.472Z,4.53
2022-12-19T11:37:22.143Z,4.50
2022-12-19T11:39:55.173Z,4.73
2022-12-19T11:42:46.466Z,3.70
2022-12-19T11:45:40.880Z,3.90
2022-12-19T11:48:35.819Z,3.40
2022-12-19T11:51:17.074Z,3.85
2022-12-19T11:53:57.021Z,4.30
2022-12-19T11:56:27.832Z,4.05
2022-12-19T11:58:59.024Z,4.97
2022-12-19T12:01:44.334Z,3.85
2022-12-19T12:04:32.179Z,4.82
2022-12-19T12:07:00.122Z,4.43
2022-12-19T12:13:51.876Z,4.50
2022-12-19T12:20:08.977Z,4.47
2022-12-19T12:25:13.488Z,4.60
2022-12-19T12:31:01.021Z,4.10
2022-12-19T12:31:11.912Z,3.07
2022-12-19T12:31:29.549Z,3.67
2022-12-19T12:32:04.349Z,4.18
2022-12-19T12:35:12.740Z,4.53
2022-12-19T12:35:57.122Z,3.70
2022-12-19T12:39:58.000Z,3.50
2022-12-19T12:42:49.321Z,3.50
2022-12-19T12:45:22.142Z,3.65
2022-12-19T12:47:51.680Z,3.92
2022-12-19T12:50:20.707Z,3.33
2022-12-19T12:52:50.674Z,2.88
2022-12-19T12:55:32.193Z,3.65
2022-12-19T12:57:59.040Z,4.07
2022-12-19T13:00:33.775Z,3.58
2022-12-19T13:03:09.516Z,2.80
2022-12-19T13:05:38.373Z,3.47
2022-12-19T13:08:45.014Z,3.13
2022-12-19T13:11:39.304Z,3.63
2022-12-19T13:14:26.753Z,3.67
2022-12-19T13:16:54.067Z,3.90
2022-12-19T13:19:28.468Z,2.90
2022-12-19T13:22:04.546Z,2.97
2022-12-19T13:24:45.071Z,3.20
2022-12-19T13:27:20.699Z,3.70
2022-12-19T13:30:15.150Z,3.13
2022-12-19T13:32:41.569Z,3.45
2022-12-19T13:36:05.225Z,3.38
2022-12-19T13:39:58.109Z,4.07
2022-12-19T13:41:26.916Z,4.00
2022-12-19T13:43:59.858Z,3.10
2022-12-19T13:46:42.469Z,3.28
2022-12-19T13:49:18.952Z,4.15
2022-12-19T13:51:54.667Z,3.60
2022-12-19T13:54:32.275Z,11.32
2022-12-19T13:56:59.209Z,11.13
2022-12-19T13:59:35.219Z,9.57
2022-12-19T14:02:13.996Z,11.13
2022-12-19T14:04:41.103Z,8.32
2022-12-19T14:07:40.962Z,6.38
2022-12-19T14:11:37.113Z,4.10
2022-12-19T14:13:50.944Z,3.70
2022-12-19T14:16:23.763Z,3.67
2022-12-19T14:19:29.066Z,4.05
2022-12-19T14:22:20.589Z,5.72
2022-12-19T14:24:55.644Z,4.80
2022-12-19T14:28:25.227Z,3.60
2022-12-19T14:30:38.278Z,3.20
2022-12-19T14:33:44.432Z,5.13
2022-12-19T14:36:10.046Z,8.40
2022-12-19T14:39:24.087Z,4.77
2022-12-19T14:42:03.380Z,11.77
2022-12-19T14:52:27.870Z,11.48
2022-12-19T14:54:01.418Z,7.45
2022-12-19T14:54:20.630Z,17.92
2022-12-19T14:54:40.046Z,13.00
2022-12-19T14:56:43.744Z,6.93
2022-12-19T14:59:04.663Z,5.07
2022-12-19T15:01:33.979Z,4.70
2022-12-19T15:04:52.005Z,3.50
2022-12-19T15:07:11.873Z,3.40
2022-12-19T15:11:08.940Z,3.80
2022-12-19T15:14:52.223Z,2.78
2022-12-19T15:16:05.053Z,4.03
2022-12-19T15:18:41.403Z,3.55
2022-12-19T15:21:12.469Z,3.53
2022-12-19T15:23:38.990Z,3.85
2022-12-19T15:26:13.341Z,3.05
2022-12-19T15:28:50.394Z,4.07
2022-12-19T15:31:34.884Z,3.60
2022-12-19T15:34:37.973Z,3.37
2022-12-19T15:37:05.528Z,3.05
2022-12-19T15:39:32.166Z,2.65
2022-12-19T15:42:00.229Z,3.08
2022-12-19T15:44:38.285Z,3.65
2022-12-19T15:47:14.996Z,3.70
2022-12-19T15:49:41.492Z,3.28
2022-12-19T15:52:19.021Z,5.57
2022-12-19T15:54:48.608Z,4.47
2022-12-19T15:57:32.125Z,8.73
2022-12-19T16:00:01.670Z,9.07
2022-12-19T16:02:56.543Z,9.18
2022-12-19T16:05:17.541Z,19.83
2022-12-19T16:07:44.585Z,7.97
2022-12-19T16:10:11.919Z,4.63
2022-12-19T16:12:45.340Z,7.63
2022-12-19T16:15:21.772Z,10.32
2022-12-19T16:17:48.207Z,4.20
2022-12-19T16:20:23.275Z,4.65
2022-12-19T16:22:49.798Z,3.30
2022-12-19T16:25:16.694Z,4.70
2022-12-19T16:27:43.881Z,5.18
2022-12-19T16:30:21.897Z,4.72
2022-12-19T16:32:49.078Z,3.90
2022-12-19T16:35:34.519Z,4.63
2022-12-19T16:38:07.056Z,3.80
2022-12-19T16:40:33.514Z,4.72
2022-12-19T16:43:12.547Z,6.55
2022-12-19T16:45:39.183Z,4.90
2022-12-19T16:48:27.193Z,4.72
2022-12-19T16:50:53.867Z,5.67
2022-12-19T16:53:20.304Z,9.10
2022-12-19T16:55:49.038Z,9.23
2022-12-19T16:58:20.120Z,16.25
2022-12-19T17:00:47.205Z,10.70
2022-12-19T17:03:28.776Z,6.83
2022-12-19T17:05:55.969Z,17.27
2022-12-19T17:08:22.915Z,7.57
2022-12-19T17:10:49.826Z,9.30
2022-12-19T17:13:17.977Z,6.40
2022-12-19T17:15:47.519Z,4.50
2022-12-19T17:18:21.460Z,7.05
2022-12-19T17:20:47.961Z,5.88
2022-12-19T17:23:16.222Z,4.30
2022-12-19T17:25:43.464Z,7.40
2022-12-19T17:28:11.102Z,10.63
2022-12-19T17:30:38.134Z,10.77
2022-12-19T17:33:06.756Z,4.82
2022-12-19T17:35:36.887Z,4.80
2022-12-19T17:38:03.924Z,4.07
2022-12-19T17:40:33.355Z,3.90
2022-12-19T17:43:00.352Z,6.95
2022-12-19T17:45:30.070Z,6.82
2022-12-19T17:48:02.858Z,4.70
2022-12-19T17:50:38.358Z,5.53
2022-12-19T17:53:05.870Z,5.67
2022-12-19T17:55:33.393Z,9.07
2022-12-19T17:57:59.993Z,8.02
2022-12-19T18:00:30.665Z,5.57
2022-12-19T18:03:01.796Z,7.85
2022-12-19T18:05:32.574Z,4.30
2022-12-19T18:07:58.997Z,6.18
2022-12-19T18:10:31.112Z,4.57
2022-12-19T18:12:58.357Z,3.85
2022-12-19T18:15:25.398Z,4.30
2022-12-19T18:17:53.483Z,4.27
2022-12-19T18:20:32.160Z,3.38
2022-12-19T18:23:00.093Z,3.50
2022-12-19T18:25:29.398Z,3.38
2022-12-19T18:27:55.876Z,3.00
2022-12-19T18:30:23.723Z,3.47
2022-12-19T18:32:55.023Z,3.97
2022-12-19T18:35:34.770Z,3.55
2022-12-19T18:38:04.761Z,2.70
2022-12-19T18:40:31.995Z,3.05
2022-12-19T18:42:59.088Z,3.20
2022-12-19T18:45:32.084Z,3.33
2022-12-19T18:48:00.719Z,3.08
2022-12-19T18:50:29.162Z,3.47
2022-12-19T18:52:56.489Z,3.30
2022-12-19T18:55:26.199Z,3.63
2022-12-19T18:57:52.843Z,3.78
2022-12-19T19:00:26.815Z,3.10
2022-12-19T19:02:57.945Z,4.72
2022-12-19T19:05:27.583Z,5.72
2022-12-19T19:07:54.052Z,4.00
2022-12-19T19:10:32.809Z,3.50
2022-12-19T19:13:02.695Z,3.55
2022-12-19T19:15:33.875Z,3.50
2022-12-19T19:18:03.415Z,4.03
2022-12-19T19:20:33.059Z,3.87
2022-12-19T19:23:00.206Z,3.22
2022-12-19T19:25:26.682Z,4.03
2022-12-19T19:27:53.418Z,3.88
2022-12-19T19:30:19.967Z,2.85
2022-12-19T19:32:52.132Z,3.67
2022-12-19T19:35:21.912Z,5.45
2022-12-19T19:37:51.727Z,3.83
2022-12-19T19:40:19.679Z,4.57
2022-12-19T19:42:46.186Z,5.13
2022-12-19T19:45:13.439Z,4.63
2022-12-19T19:47:42.356Z,4.20
2022-12-19T19:50:12.067Z,2.92
2022-12-19T19:52:40.121Z,3.13
2022-12-19T19:55:09.534Z,4.68
2022-12-19T19:57:36.519Z,5.43
2022-12-19T20:00:05.748Z,7.47
2022-12-19T20:02:32.482Z,3.85
2022-12-19T20:05:00.051Z,4.70
2022-12-19T20:07:26.637Z,4.95
2022-12-19T20:09:53.790Z,4.63
2022-12-19T20:12:20.379Z,5.07
2022-12-19T20:14:47.421Z,5.70
2022-12-19T20:17:13.998Z,7.20
2022-12-19T20:19:40.550Z,4.25
2022-12-19T20:22:07.118Z,3.03
2022-12-19T20:24:33.636Z,3.13
2022-12-19T20:27:00.272Z,3.15
2022-12-19T20:29:27.139Z,3.42
2022-12-19T20:31:53.803Z,3.00
2022-12-19T20:34:20.240Z,2.80
2022-12-19T20:36:46.914Z,2.65
2022-12-19T20:39:13.718Z,2.70
2022-12-19T20:41:40.137Z,2.78
2022-12-19T20:44:06.549Z,4.03
2022-12-19T20:46:33.107Z,2.70
2022-12-19T20:48:59.631Z,3.13
2022-12-19T20:51:26.199Z,2.80
2022-12-19T20:53:54.615Z,3.50
2022-12-19T20:56:23.271Z,3.13
2022-12-19T20:58:50.283Z,3.60
2022-12-19T21:01:19.602Z,2.97
2022-12-19T21:03:47.004Z,3.28
2022-12-19T21:06:16.888Z,2.90
2022-12-19T21:08:44.752Z,3.00
2022-12-19T21:11:12.381Z,3.20
2022-12-19T21:13:40.897Z,2.63
2022-12-19T21:16:09.958Z,2.42
2022-12-19T21:18:38.311Z,3.25
2022-12-19T21:21:07.153Z,3.05
2022-12-19T21:23:34.127Z,2.90
2022-12-19T21:26:02.555Z,2.70
2022-12-19T21:28:29.260Z,3.05
2022-12-19T21:31:04.050Z,3.05
2022-12-19T21:33:30.975Z,2.72
2022-12-19T21:35:57.771Z,2.73
2022-12-19T21:38:24.702Z,3.03
2022-12-19T21:40:51.096Z,2.58
2022-12-19T21:43:17.508Z,3.08
2022-12-19T21:45:43.994Z,2.90
2022-12-19T21:48:10.489Z,2.83
2022-12-19T21:50:36.939Z,3.10
2022-12-19T21:53:03.365Z,2.90
2022-12-19T21:55:29.810Z,2.30
2022-12-19T21:57:56.313Z,4.18
2022-12-19T22:00:22.973Z,2.73
2022-12-19T22:03:12.166Z,2.05
2022-12-19T22:05:35.984Z,2.47
2022-12-19T22:08:02.412Z,2.33
2022-12-19T22:10:28.831Z,3.17
2022-12-19T22:12:55.266Z,2.50
2022-12-19T22:15:21.671Z,2.72
2022-12-19T22:17:48.123Z,2.78
2022-12-19T22:20:14.566Z,2.40
2022-12-19T22:22:41.021Z,2.50
2022-12-19T22:25:07.810Z,2.20
2022-12-19T22:27:34.185Z,2.70
2022-12-19T22:30:05.059Z,2.50
2022-12-19T22:32:35.091Z,2.17
2022-12-19T22:35:01.552Z,2.83
2022-12-19T22:37:28.219Z,2.37
2022-12-19T22:39:55.950Z,2.67
2022-12-19T22:42:22.355Z,2.47
2022-12-19T22:44:48.779Z,2.75
2022-12-19T22:47:15.184Z,2.80
2022-12-19T22:49:41.663Z,2.33
2022-12-19T22:52:08.075Z,3.10
2022-12-19T22:54:34.485Z,2.50
2022-12-19T22:57:00.900Z,2.30
2022-12-19T22:59:27.446Z,2.40
2022-12-19T23:01:54.187Z,2.00
2022-12-19T23:04:20.904Z,2.97
2022-12-19T23:06:47.526Z,2.38
2022-12-19T23:09:17.028Z,2.42
2022-12-19T23:11:46.108Z,2.53
2022-12-19T23:14:15.374Z,2.27
2022-12-19T23:16:42.924Z,2.38
2022-12-19T23:19:10.536Z,2.15
2022-12-19T23:21:37.615Z,2.28
2022-12-19T23:24:04.381Z,2.88
2022-12-19T23:26:33.861Z,2.97
2022-12-19T23:29:09.817Z,2.25
2022-12-19T23:31:39.763Z,2.33
2022-12-19T23:34:06.247Z,2.22
2022-12-19T23:39:20.109Z,2.47
2022-12-19T23:41:46.638Z,2.30
2022-12-19T23:44:13.353Z,2.15
2022-12-19T23:46:40.229Z,2.45
2022-12-19T23:49:06.718Z,2.28
2022-12-19T23:51:33.191Z,2.30
2022-12-19T23:53:59.602Z,2.38
2022-12-19T23:56:28.745Z,2.00
2022-12-19T23:58:55.912Z,2.30
